Time;durP1;ratioP1;P1;durP2;ratioP2;P2;SDS_P1;SDS_P2;PMS_P1;PMS_P2;Temp;Humidity;BMP_temperature;BMP_pressure;BME280_temperature;BME280_humidity;BME280_pressure;Samples;Min_cycle;Max_cycle;Signal;HPM_P1;HPM_P2
2023/06/22 00:00:59;;;;;;;9.17;8.33;;;23.00;99.90;;;;;;5096272;28;20422;-70
2023/06/22 00:03:25;;;;;;;9.43;8.53;;;23.00;99.90;;;;;;5096278;28;20406;-70
2023/06/22 00:05:51;;;;;;;8.70;7.90;;;22.90;99.90;;;;;;5096015;28;20422;-70
2023/06/22 00:08:18;;;;;;;10.53;9.30;;;22.80;99.90;;;;;;5096049;28;20476;-70
2023/06/22 00:10:44;;;;;;;9.23;8.33;;;22.80;99.90;;;;;;5096391;28;20431;-70
2023/06/22 00:13:10;;;;;;;10.63;9.63;;;22.80;99.90;;;;;;5096235;28;20411;-70
2023/06/22 00:15:37;;;;;;;8.93;8.10;;;22.90;99.90;;;;;;5095375;28;20414;-70
2023/06/22 00:18:03;;;;;;;8.60;7.70;;;22.90;99.90;;;;;;5096092;28;20503;-71
2023/06/22 00:20:29;;;;;;;9.40;8.60;;;22.90;99.90;;;;;;5096072;28;20423;-70
2023/06/22 00:22:56;;;;;;;9.33;8.30;;;23.00;99.90;;;;;;5096364;28;20285;-70
2023/06/22 00:25:22;;;;;;;10.33;9.23;;;23.00;99.90;;;;;;5096325;28;20744;-70
2023/06/22 00:27:48;;;;;;;9.77;8.67;;;22.80;99.90;;;;;;5094798;28;20410;-70
2023/06/22 00:30:15;;;;;;;10.23;9.07;;;22.90;99.90;;;;;;5095879;28;20827;-70
2023/06/22 00:32:41;;;;;;;10.97;8.17;;;23.00;99.90;;;;;;5096126;28;20406;-70
2023/06/22 00:35:07;;;;;;;9.80;8.80;;;23.00;99.90;;;;;;5096179;28;20404;-70
2023/06/22 00:37:33;;;;;;;8.50;7.63;;;23.00;99.90;;;;;;5095383;28;20196;-70
2023/06/22 00:39:58;;;;;;;8.90;8.00;;;23.00;99.90;;;;;;5096491;28;20459;-70
2023/06/22 00:42:24;;;;;;;9.70;8.67;;;23.00;99.90;;;;;;5098317;28;20253;-70
2023/06/22 00:44:50;;;;;;;9.67;8.70;;;23.00;99.90;;;;;;5097097;28;20173;-70
2023/06/22 00:47:17;;;;;;;9.07;8.17;;;22.90;99.90;;;;;;5080345;28;20692;-70
2023/06/22 00:49:43;;;;;;;9.83;8.47;;;22.80;99.90;;;;;;5078144;28;20174;-71
2023/06/22 00:52:13;;;;;;;10.30;8.70;;;22.80;99.90;;;;;;5078215;28;20939;-71
2023/06/22 00:54:45;;;;;;;8.80;7.90;;;22.80;99.90;;;;;;5078477;28;20408;-70
2023/06/22 00:57:12;;;;;;;9.97;8.97;;;22.90;99.90;;;;;;5075616;28;20397;-70
2023/06/22 00:59:39;;;;;;;9.47;8.50;;;22.80;99.90;;;;;;5074746;28;20448;-70
2023/06/22 01:02:05;;;;;;;8.80;7.27;;;22.80;99.90;;;;;;5074171;28;20427;-70
2023/06/22 01:04:38;;;;;;;11.13;8.80;;;22.80;99.90;;;;;;5075211;28;20433;-71
2023/06/22 01:07:24;;;;;;;8.87;8.07;;;22.80;99.90;;;;;;5075572;28;20400;-70
2023/06/22 01:10:08;;;;;;;9.97;8.97;;;22.90;99.90;;;;;;5075351;28;20385;-70
2023/06/22 01:12:45;;;;;;;9.50;8.60;;;22.70;99.90;;;;;;5086453;28;20525;-71
2023/06/22 01:15:18;;;;;;;9.30;8.50;;;22.70;99.90;;;;;;5095419;28;20901;-71
2023/06/22 01:17:45;;;;;;;9.00;8.30;;;22.70;99.90;;;;;;5095455;28;20449;-70
2023/06/22 01:20:14;;;;;;;9.70;8.90;;;22.70;99.90;;;;;;5096018;28;20410;-70
2023/06/22 01:23:09;;;;;;;10.27;9.30;;;22.50;99.90;;;;;;5095785;28;20483;-71
2023/06/22 01:26:07;;;;;;;9.67;8.87;;;22.30;99.90;;;;;;5093484;28;20415;-71
2023/06/22 01:28:47;;;;;;;9.83;8.90;;;22.00;99.90;;;;;;5095154;28;20387;-71
2023/06/22 01:31:19;;;;;;;9.73;8.73;;;22.20;99.90;;;;;;5094387;28;20514;-70
2023/06/22 01:33:49;;;;;;;8.70;8.00;;;22.20;99.90;;;;;;5094630;28;20494;-70
2023/06/22 01:36:16;;;;;;;9.40;8.40;;;22.20;99.90;;;;;;5094587;28;20427;-70
2023/06/22 01:38:42;;;;;;;8.57;7.77;;;22.00;99.90;;;;;;5094294;28;20486;-70
2023/06/22 01:41:09;;;;;;;8.90;7.87;;;22.00;99.90;;;;;;5094295;28;20447;-70
2023/06/22 01:43:36;;;;;;;9.17;8.27;;;22.20;99.90;;;;;;5094541;28;20455;-70
2023/06/22 01:46:04;;;;;;;11.13;8.17;;;22.20;99.90;;;;;;5093898;28;20415;-70
2023/06/22 01:48:31;;;;;;;10.43;8.23;;;22.10;99.90;;;;;;5094812;28;20407;-70
2023/06/22 01:50:57;;;;;;;12.27;7.83;;;22.10;99.90;;;;;;5094205;28;20434;-70
2023/06/22 01:53:23;;;;;;;8.43;7.63;;;22.10;99.90;;;;;;5094228;28;20804;-70
2023/06/22 01:55:49;;;;;;;10.60;8.60;;;22.10;99.90;;;;;;5094710;28;21025;-70
2023/06/22 01:58:15;;;;;;;9.83;8.17;;;22.00;99.90;;;;;;5092699;28;20451;-70
2023/06/22 02:00:48;;;;;;;8.67;7.50;;;21.90;99.90;;;;;;5093464;28;20181;-70
2023/06/22 02:03:19;;;;;;;8.40;7.53;;;21.90;99.90;;;;;;5094078;28;20707;-70
2023/06/22 02:05:58;;;;;;;9.00;7.57;;;22.00;99.90;;;;;;5094594;28;20396;-70
2023/06/22 02:08:28;;;;;;;9.17;8.27;;;22.00;99.90;;;;;;5093992;28;20786;-70
2023/06/22 02:10:55;;;;;;;8.40;7.60;;;22.00;99.90;;;;;;5094002;28;20427;-70
2023/06/22 02:13:24;;;;;;;9.23;8.30;;;22.10;99.90;;;;;;5092483;28;20403;-70
2023/06/22 02:15:50;;;;;;;8.60;7.80;;;22.00;99.90;;;;;;5093219;28;20456;-70
2023/06/22 02:18:15;;;;;;;10.30;8.33;;;21.90;99.90;;;;;;5093645;28;20537;-70
2023/06/22 02:20:41;;;;;;;8.37;7.50;;;21.90;99.90;;;;;;5093758;28;20523;-70
2023/06/22 02:23:07;;;;;;;7.90;7.07;;;21.70;99.90;;;;;;5093582;28;20230;-70
2023/06/22 02:25:33;;;;;;;8.27;7.47;;;21.60;99.90;;;;;;5093688;28;20172;-70
2023/06/22 02:27:59;;;;;;;9.20;7.60;;;21.60;99.90;;;;;;5093446;28;20407;-70
2023/06/22 02:30:25;;;;;;;8.30;7.60;;;21.60;99.90;;;;;;5092915;28;20452;-70
2023/06/22 02:32:58;;;;;;;10.60;9.57;;;21.70;99.90;;;;;;5093506;28;20248;-70
2023/06/22 02:35:31;;;;;;;9.10;8.30;;;21.80;99.90;;;;;;5093563;28;20150;-70
2023/06/22 02:37:58;;;;;;;8.70;7.80;;;21.80;99.90;;;;;;5093726;28;20372;-70
2023/06/22 02:40:24;;;;;;;9.90;8.40;;;21.70;99.90;;;;;;5093129;28;20423;-70
2023/06/22 02:42:49;;;;;;;8.30;7.50;;;21.70;99.90;;;;;;5093313;28;20493;-70
2023/06/22 02:45:15;;;;;;;9.43;8.40;;;21.70;99.90;;;;;;5092586;28;20181;-70
2023/06/22 02:47:41;;;;;;;9.50;8.60;;;21.70;99.90;;;;;;5091331;28;20543;-70
2023/06/22 02:50:07;;;;;;;10.13;9.13;;;21.60;99.90;;;;;;5092614;28;20181;-70
2023/06/22 02:52:32;;;;;;;10.53;9.43;;;21.50;99.90;;;;;;5093221;28;20185;-70
2023/06/22 02:54:58;;;;;;;9.93;9.00;;;21.30;99.90;;;;;;5089750;28;20531;-70
2023/06/22 02:57:23;;;;;;;9.97;8.83;;;21.30;99.90;;;;;;5092936;28;20223;-70
2023/06/22 02:59:49;;;;;;;10.23;9.23;;;21.50;99.90;;;;;;5092923;28;20189;-70
2023/06/22 03:02:14;;;;;;;11.90;9.57;;;21.60;99.90;;;;;;5092662;28;20185;-70
2023/06/22 03:04:40;;;;;;;12.53;10.40;;;21.60;99.90;;;;;;5092872;28;20162;-70
2023/06/22 03:07:05;;;;;;;9.47;8.50;;;21.50;99.90;;;;;;5093571;28;20222;-70
2023/06/22 03:09:31;;;;;;;10.80;9.77;;;21.50;99.90;;;;;;5092773;28;20264;-70
2023/06/22 03:11:57;;;;;;;12.30;10.30;;;21.40;99.90;;;;;;5092792;28;20224;-70
2023/06/22 03:14:23;;;;;;;11.20;8.67;;;21.50;99.90;;;;;;5092045;28;20177;-70
2023/06/22 03:16:48;;;;;;;11.90;9.73;;;21.60;99.90;;;;;;5092419;28;20168;-70
2023/06/22 03:19:14;;;;;;;11.30;10.20;;;21.60;99.90;;;;;;5092927;28;20193;-70
2023/06/22 03:21:40;;;;;;;10.73;9.30;;;21.60;99.90;;;;;;5091351;28;20221;-70
2023/06/22 03:24:06;;;;;;;11.00;10.10;;;21.50;99.90;;;;;;5092667;28;20170;-70
2023/06/22 03:26:32;;;;;;;11.83;10.73;;;21.40;99.90;;;;;;5093060;28;20162;-70
2023/06/22 03:28:58;;;;;;;10.33;9.20;;;21.30;99.90;;;;;;5093003;28;20412;-70
2023/06/22 03:31:23;;;;;;;12.93;11.60;;;21.30;99.90;;;;;;5090885;28;20189;-70
2023/06/22 03:33:50;;;;;;;10.57;9.60;;;21.30;99.90;;;;;;5092750;28;20193;-70
2023/06/22 03:36:18;;;;;;;10.63;9.83;;;21.20;99.90;;;;;;5092783;28;20192;-70
2023/06/22 03:38:47;;;;;;;10.47;9.57;;;21.20;99.90;;;;;;5092654;28;20461;-70
2023/06/22 03:41:13;;;;;;;13.23;10.87;;;21.20;99.90;;;;;;5091625;28;20457;-70
2023/06/22 03:43:39;;;;;;;10.07;8.57;;;21.20;99.90;;;;;;5092883;28;20902;-70
2023/06/22 03:46:05;;;;;;;10.80;9.80;;;21.40;99.90;;;;;;5091422;28;20189;-70
2023/06/22 03:48:31;;;;;;;11.73;10.17;;;21.40;99.90;;;;;;5092704;28;20252;-70
2023/06/22 03:50:56;;;;;;;10.33;9.23;;;21.30;99.90;;;;;;5092823;28;20192;-70
2023/06/22 03:53:22;;;;;;;12.00;10.23;;;21.20;99.90;;;;;;5092823;28;20260;-70
2023/06/22 03:55:50;;;;;;;12.00;10.00;;;21.30;99.90;;;;;;5092785;28;20193;-70
2023/06/22 03:58:16;;;;;;;10.63;9.53;;;21.40;99.90;;;;;;5093797;28;20194;-70
2023/06/22 04:00:41;;;;;;;11.00;9.90;;;21.40;99.90;;;;;;5092785;28;20509;-70
2023/06/22 04:03:07;;;;;;;11.60;10.60;;;21.50;99.90;;;;;;5096852;28;20777;-70
2023/06/22 04:05:33;;;;;;;11.00;10.00;;;21.40;99.90;;;;;;5096774;28;20628;-70
2023/06/22 04:07:58;;;;;;;13.80;10.97;;;21.40;99.90;;;;;;5096668;28;20158;-70
2023/06/22 04:10:24;;;;;;;9.50;8.70;;;21.30;99.90;;;;;;5096775;28;20215;-70
2023/06/22 04:12:49;;;;;;;9.57;8.60;;;21.30;99.90;;;;;;5095114;28;20273;-70
2023/06/22 04:15:15;;;;;;;11.17;10.13;;;21.40;99.90;;;;;;5096039;28;20173;-70
2023/06/22 04:17:41;;;;;;;10.77;9.77;;;21.40;99.90;;;;;;5096413;28;20168;-70
2023/06/22 04:20:07;;;;;;;11.23;10.00;;;21.50;99.90;;;;;;5096163;28;20224;-70
2023/06/22 04:22:33;;;;;;;11.30;10.30;;;21.60;99.90;;;;;;5096035;28;20211;-70
2023/06/22 04:24:58;;;;;;;10.50;9.60;;;21.60;99.90;;;;;;5096267;28;20400;-70
2023/06/22 04:27:24;;;;;;;10.40;9.40;;;21.70;99.90;;;;;;5096468;28;20165;-70
2023/06/22 04:29:50;;;;;;;10.80;9.70;;;21.70;99.90;;;;;;5095977;28;20161;-70
2023/06/22 04:32:16;;;;;;;11.83;10.40;;;21.70;99.90;;;;;;5095928;28;20184;-70
2023/06/22 04:34:42;;;;;;;9.30;8.50;;;21.70;99.90;;;;;;5096668;28;20902;-70
2023/06/22 04:37:08;;;;;;;9.70;8.67;;;21.90;99.90;;;;;;5096124;28;20581;-70
2023/06/22 04:39:34;;;;;;;10.43;9.43;;;22.00;99.90;;;;;;5096941;28;20534;-70
2023/06/22 04:42:00;;;;;;;10.50;9.50;;;22.10;99.90;;;;;;5096306;28;20577;-70
2023/06/22 04:44:26;;;;;;;10.47;9.47;;;22.20;99.90;;;;;;5093368;28;20170;-70
2023/06/22 04:47:00;;;;;;;9.57;8.70;;;22.30;99.90;;;;;;5095207;28;20483;-70
2023/06/22 04:49:32;;;;;;;10.20;9.20;;;22.40;99.90;;;;;;5094374;28;20408;-70
2023/06/22 04:52:05;;;;;;;10.47;9.47;;;22.40;99.90;;;;;;5095708;28;20438;-70
2023/06/22 04:54:32;;;;;;;11.70;10.57;;;22.40;99.90;;;;;;5094221;28;20400;-70
2023/06/22 04:57:03;;;;;;;10.77;9.67;;;22.40;99.90;;;;;;5095666;28;20771;-70
2023/06/22 04:59:29;;;;;;;9.90;8.90;;;22.40;99.90;;;;;;5095630;28;20439;-70
2023/06/22 05:02:02;;;;;;;9.80;8.50;;;22.50;99.90;;;;;;5094819;28;20411;-70
2023/06/22 05:04:31;;;;;;;12.50;9.97;;;22.60;99.90;;;;;;5095193;28;20435;-70
2023/06/22 05:06:57;;;;;;;10.17;9.10;;;22.60;99.90;;;;;;5094619;28;20427;-70
2023/06/22 05:09:23;;;;;;;10.20;9.00;;;22.80;99.90;;;;;;5094379;28;20414;-70
2023/06/22 05:11:49;;;;;;;15.07;10.43;;;22.80;99.90;;;;;;5094769;28;20431;-70
2023/06/22 05:14:14;;;;;;;11.53;10.40;;;22.90;99.90;;;;;;5094273;28;20478;-70
2023/06/22 05:16:42;;;;;;;11.57;10.40;;;22.90;99.90;;;;;;5094659;28;20169;-70
2023/06/22 05:19:08;;;;;;;12.57;11.30;;;23.00;99.90;;;;;;5094771;28;20230;-70
2023/06/22 05:21:33;;;;;;;13.13;11.93;;;23.20;99.90;;;;;;5094326;28;20423;-68
2023/06/22 05:24:02;;;;;;;14.80;11.50;;;23.20;99.90;;;;;;5094672;28;20396;-70
2023/06/22 05:26:29;;;;;;;15.13;12.07;;;23.30;99.90;;;;;;5095063;28;20161;-70
2023/06/22 05:28:55;;;;;;;12.43;11.27;;;23.50;99.90;;;;;;5095056;28;20801;-70
2023/06/22 05:31:21;;;;;;;10.87;9.77;;;23.60;99.90;;;;;;5094044;28;20438;-70
2023/06/22 05:33:48;;;;;;;11.83;10.70;;;23.70;99.90;;;;;;5094612;28;20175;-70
2023/06/22 05:36:14;;;;;;;10.97;9.90;;;23.50;99.90;;;;;;5094489;28;20252;-70
2023/06/22 05:38:40;;;;;;;11.03;9.60;;;23.70;99.90;;;;;;5094422;28;20864;-70
2023/06/22 05:41:06;;;;;;;13.90;11.27;;;23.90;99.90;;;;;;5094393;28;20212;-70
2023/06/22 05:43:32;;;;;;;12.30;9.77;;;23.80;99.90;;;;;;5094135;28;20396;-70
2023/06/22 05:45:59;;;;;;;10.97;9.53;;;23.90;99.90;;;;;;5093734;28;20619;-70
2023/06/22 05:48:25;;;;;;;15.30;10.30;;;24.10;99.90;;;;;;5094497;28;20476;-70
2023/06/22 05:50:50;;;;;;;12.80;9.77;;;24.20;99.90;;;;;;5094269;28;20455;-70
2023/06/22 05:53:16;;;;;;;12.57;10.80;;;24.20;99.90;;;;;;5093322;28;20576;-70
2023/06/22 05:55:42;;;;;;;11.03;10.00;;;24.20;99.90;;;;;;5094083;28;20161;-70
2023/06/22 05:58:08;;;;;;;10.47;7.97;;;24.10;99.90;;;;;;5094178;28;20162;-70
2023/06/22 06:00:34;;;;;;;9.53;8.47;;;23.90;99.90;;;;;;5093603;28;20443;-70
2023/06/22 06:03:03;;;;;;;10.30;8.90;;;23.60;99.90;;;;;;5093590;28;20494;-70
2023/06/22 06:05:30;;;;;;;13.47;10.00;;;23.50;99.90;;;;;;5094390;28;20452;-70
2023/06/22 06:07:56;;;;;;;11.50;9.50;;;23.80;99.90;;;;;;5092370;28;20399;-70
2023/06/22 06:10:21;;;;;;;10.97;9.90;;;23.70;99.90;;;;;;5093857;28;20778;-70
2023/06/22 06:12:47;;;;;;;11.00;9.90;;;23.60;99.90;;;;;;5094210;28;20173;-70
2023/06/22 06:15:13;;;;;;;12.70;9.70;;;23.80;99.90;;;;;;5093530;28;20704;-70
2023/06/22 06:17:52;;;;;;;10.40;9.00;;;23.60;99.90;;;;;;5093731;28;20165;-70
2023/06/22 06:20:22;;;;;;;11.40;9.50;;;23.60;99.90;;;;;;5093614;28;20172;-70
2023/06/22 06:22:49;;;;;;;10.57;9.50;;;23.60;99.90;;;;;;5093686;28;20463;-70
2023/06/22 06:25:19;;;;;;;10.50;9.50;;;23.60;99.90;;;;;;5092580;28;20936;-70
2023/06/22 06:27:50;;;;;;;10.87;9.50;;;23.60;99.90;;;;;;5093548;28;20498;-70
2023/06/22 06:30:18;;;;;;;9.67;8.77;;;23.70;99.90;;;;;;5090479;28;20769;-70
2023/06/22 06:32:45;;;;;;;9.70;8.33;;;23.70;99.90;;;;;;5093368;28;20775;-70
2023/06/22 06:35:12;;;;;;;8.70;7.70;;;23.90;99.90;;;;;;5093331;28;20391;-70
2023/06/22 06:37:39;;;;;;;9.13;8.23;;;24.00;99.90;;;;;;5093669;28;20479;-70
2023/06/22 06:40:10;;;;;;;8.50;7.67;;;23.90;99.90;;;;;;5093396;28;20527;-70
2023/06/22 06:42:47;;;;;;;8.97;8.17;;;24.00;99.90;;;;;;5091990;28;20399;-70
2023/06/22 06:45:22;;;;;;;10.57;8.00;;;24.10;99.90;;;;;;5092359;28;20403;-70
2023/06/22 06:47:49;;;;;;;8.00;7.30;;;24.00;99.90;;;;;;5091629;28;20970;-70
2023/06/22 06:50:15;;;;;;;15.37;8.97;;;24.20;99.90;;;;;;5087172;28;20442;-70
2023/06/22 06:52:41;;;;;;;8.50;7.70;;;24.60;99.90;;;;;;5073110;28;20898;-70
2023/06/22 06:55:11;;;;;;;9.80;8.20;;;24.80;99.90;;;;;;5072905;28;20487;-70
2023/06/22 06:57:41;;;;;;;9.13;8.23;;;24.90;99.90;;;;;;5072322;28;20888;-70
2023/06/22 07:00:11;;;;;;;8.33;7.50;;;24.90;99.90;;;;;;5072894;28;20908;-70
2023/06/22 07:02:41;;;;;;;9.27;8.10;;;25.00;99.90;;;;;;5072949;28;20435;-72
2023/06/22 07:05:08;;;;;;;10.63;7.83;;;24.80;99.90;;;;;;5073895;28;20852;-72
2023/06/22 07:07:34;;;;;;;7.60;6.90;;;24.90;99.90;;;;;;5073795;28;20546;-72
2023/06/22 07:10:00;;;;;;;11.53;8.27;;;25.10;99.90;;;;;;5073380;28;20445;-72
2023/06/22 07:12:25;;;;;;;8.57;7.33;;;24.90;99.90;;;;;;5072874;28;20214;-71
2023/06/22 07:14:52;;;;;;;8.00;7.20;;;24.80;99.90;;;;;;5087413;28;20185;-71
2023/06/22 07:17:17;;;;;;;9.53;8.13;;;24.80;99.90;;;;;;5092944;28;20177;-72
2023/06/22 07:19:43;;;;;;;7.63;6.93;;;24.70;99.90;;;;;;5093269;28;20447;-72
2023/06/22 07:22:09;;;;;;;9.00;8.20;;;24.80;99.90;;;;;;5093365;28;20177;-72
2023/06/22 07:24:34;;;;;;;8.20;6.70;;;24.80;99.90;;;;;;5094118;28;20211;-72
2023/06/22 07:27:02;;;;;;;10.50;7.57;;;25.00;99.90;;;;;;5093582;28;20200;-73
2023/06/22 07:29:27;;;;;;;9.37;7.63;;;25.20;99.90;;;;;;5093604;28;20256;-73
2023/06/22 07:31:56;;;;;;;7.83;7.13;;;25.40;99.90;;;;;;5092960;28;20450;-73
2023/06/22 07:34:21;;;;;;;8.87;7.33;;;25.60;99.90;;;;;;5094059;28;20250;-72
2023/06/22 07:36:47;;;;;;;8.40;7.60;;;25.80;99.90;;;;;;5095850;28;20439;-73
2023/06/22 07:39:12;;;;;;;11.67;7.80;;;25.80;99.90;;;;;;5097230;28;20189;-73
2023/06/22 07:41:40;;;;;;;7.97;6.93;;;25.90;99.90;;;;;;5096908;28;20284;-72
2023/06/22 07:44:06;;;;;;;8.40;7.00;;;26.00;99.90;;;;;;5096914;28;20581;-72
2023/06/22 07:46:32;;;;;;;8.00;7.20;;;26.20;99.90;;;;;;5096429;28;20477;-72
2023/06/22 07:48:58;;;;;;;12.60;8.10;;;26.40;99.90;;;;;;5100443;28;20169;-73
2023/06/22 07:51:24;;;;;;;9.50;6.77;;;26.70;99.90;;;;;;5097698;28;20425;-72
2023/06/22 07:53:49;;;;;;;7.27;5.83;;;26.90;99.90;;;;;;5099328;28;20157;-72
2023/06/22 07:56:18;;;;;;;7.80;6.17;;;26.90;99.90;;;;;;5097723;28;20170;-71
2023/06/22 07:58:45;;;;;;;11.50;6.37;;;27.00;99.90;;;;;;5096618;28;20442;-71
2023/06/22 08:01:11;;;;;;;8.30;6.40;;;27.20;99.90;;;;;;5096231;28;20430;-71
2023/06/22 08:03:37;;;;;;;7.87;6.30;;;26.80;99.90;;;;;;5096907;28;20759;-72
2023/06/22 08:06:03;;;;;;;7.10;6.20;;;26.80;99.90;;;;;;5096665;28;20274;-72
2023/06/22 08:08:28;;;;;;;8.00;6.10;;;26.70;99.90;;;;;;5096652;28;20165;-72
2023/06/22 08:10:54;;;;;;;8.87;6.43;;;26.60;99.90;;;;;;5096496;28;20276;-72
2023/06/22 08:13:20;;;;;;;7.70;6.60;;;26.70;99.90;;;;;;5096127;28;20173;-72
2023/06/22 08:15:45;;;;;;;10.73;6.30;;;26.70;99.90;;;;;;5094647;28;20177;-71
2023/06/22 08:18:11;;;;;;;8.27;6.60;;;26.90;99.90;;;;;;5095762;28;20177;-72
2023/06/22 08:20:36;;;;;;;11.93;6.20;;;27.10;99.90;;;;;;5096112;28;20204;-71
2023/06/22 08:23:06;;;;;;;7.30;6.60;;;27.40;99.90;;;;;;5096646;28;20206;-72
2023/06/22 08:25:34;;;;;;;8.07;7.07;;;27.10;99.90;;;;;;5094874;28;20169;-72
2023/06/22 08:28:01;;;;;;;9.00;7.30;;;27.40;99.90;;;;;;5094863;28;20483;-71
2023/06/22 08:30:26;;;;;;;8.60;6.10;;;27.70;99.90;;;;;;5096227;28;20410;-73
2023/06/22 08:32:53;;;;;;;7.70;6.00;;;27.60;99.90;;;;;;5095758;28;20408;-74
2023/06/22 08:35:19;;;;;;;12.37;7.17;;;28.10;99.90;;;;;;5096603;28;20290;-74
2023/06/22 08:37:50;;;;;;;8.97;5.77;;;28.40;99.90;;;;;;5094643;28;20869;-72
2023/06/22 08:40:16;;;;;;;9.83;5.93;;;28.90;99.90;;;;;;5095905;28;20266;-72
2023/06/22 08:42:41;;;;;;;10.20;5.67;;;29.10;99.90;;;;;;5093061;28;20399;-75
2023/06/22 08:45:07;;;;;;;9.80;6.00;;;29.10;99.90;;;;;;5095222;28;20594;-75
2023/06/22 08:47:33;;;;;;;7.80;5.50;;;29.10;99.90;;;;;;5094423;28;20252;-75
2023/06/22 08:49:59;;;;;;;9.20;5.80;;;29.70;99.90;;;;;;5095795;28;20442;-74
2023/06/22 08:52:24;;;;;;;6.83;6.13;;;29.60;99.90;;;;;;5095679;28;20260;-74
2023/06/22 08:54:51;;;;;;;6.40;5.50;;;29.40;99.90;;;;;;5094158;28;20177;-74
2023/06/22 08:57:16;;;;;;;8.83;6.40;;;29.50;99.90;;;;;;5095527;28;20165;-72
2023/06/22 08:59:42;;;;;;;8.07;6.00;;;29.30;99.90;;;;;;5095185;28;20816;-72
2023/06/22 09:02:08;;;;;;;9.10;6.50;;;29.30;99.90;;;;;;5094929;28;20182;-72
2023/06/22 09:04:34;;;;;;;8.70;6.20;;;29.70;99.90;;;;;;5095050;28;20170;-70
2023/06/22 09:07:01;;;;;;;8.47;6.67;;;30.00;99.90;;;;;;5095361;28;20511;-72
2023/06/22 09:09:27;;;;;;;7.47;5.87;;;29.80;99.90;;;;;;5094736;28;20408;-68
2023/06/22 09:11:52;;;;;;;8.70;6.10;;;29.60;99.90;;;;;;5094947;28;21004;-71
2023/06/22 09:14:18;;;;;;;9.73;7.00;;;30.00;99.90;;;;;;5095317;28;20166;-71
2023/06/22 09:16:44;;;;;;;9.97;6.37;;;30.10;99.90;;;;;;5094702;28;20181;-72
2023/06/22 09:19:10;;;;;;;11.03;6.93;;;30.00;99.90;;;;;;5094988;28;20498;-73
2023/06/22 09:21:36;;;;;;;11.60;7.03;;;30.00;99.90;;;;;;5095486;28;20185;-74
2023/06/22 09:24:02;;;;;;;8.87;6.57;;;30.00;99.90;;;;;;5095058;28;20193;-73
2023/06/22 09:26:27;;;;;;;9.50;6.80;;;29.60;99.90;;;;;;5095101;28;20404;-73
2023/06/22 09:28:53;;;;;;;8.10;6.40;;;29.70;99.90;;;;;;5094840;28;20776;-73
2023/06/22 09:31:25;;;;;;;6.20;5.60;;;29.50;99.90;;;;;;5094780;28;20182;-71
2023/06/22 09:33:51;;;;;;;10.77;6.77;;;29.50;99.90;;;;;;5098225;28;20145;-73
2023/06/22 09:36:17;;;;;;;8.90;7.10;;;29.40;99.90;;;;;;5098706;28;20415;-72
2023/06/22 09:38:42;;;;;;;8.37;6.20;;;29.80;99.90;;;;;;5095683;28;20439;-73
2023/06/22 09:41:08;;;;;;;9.23;7.37;;;29.90;99.90;;;;;;5102712;28;20595;-72
2023/06/22 09:43:37;;;;;;;6.50;5.80;;;30.00;99.90;;;;;;5105384;28;20253;-73
2023/06/22 09:46:02;;;;;;;7.83;5.53;;;29.80;99.90;;;;;;5101862;28;20184;-73
2023/06/22 09:48:31;;;;;;;14.90;7.40;;;30.10;99.90;;;;;;5094552;28;20400;-73
2023/06/22 09:50:57;;;;;;;10.43;6.03;;;30.20;99.90;;;;;;5094567;28;20204;-76
2023/06/22 09:53:22;;;;;;;10.77;6.27;;;30.10;99.90;;;;;;5094359;28;20779;-73
2023/06/22 09:55:48;;;;;;;11.10;6.47;;;30.20;99.90;;;;;;5092816;28;20642;-72
2023/06/22 09:58:13;;;;;;;8.90;6.33;;;30.30;99.90;;;;;;5094021;28;20169;-72
2023/06/22 10:00:41;;;;;;;10.40;6.60;;;30.60;99.90;;;;;;5094025;28;20186;-72
2023/06/22 10:03:07;;;;;;;18.73;7.13;;;30.90;99.50;;;;;;5093879;28;20180;-72
2023/06/22 10:05:32;;;;;;;8.07;5.93;;;31.00;99.30;;;;;;5094217;28;20475;-72
2023/06/22 10:07:58;;;;;;;9.50;6.43;;;31.00;99.90;;;;;;5094294;28;20754;-73
2023/06/22 10:10:23;;;;;;;9.83;5.90;;;31.00;99.80;;;;;;5094406;28;20543;-73
2023/06/22 10:12:57;;;;;;;12.03;6.70;;;31.20;99.90;;;;;;5094051;28;20184;-72
2023/06/22 10:15:22;;;;;;;9.97;6.27;;;31.60;98.80;;;;;;5094318;28;20173;-72
2023/06/22 10:17:48;;;;;;;11.63;6.20;;;31.90;98.40;;;;;;5093645;28;20456;-73
2023/06/22 10:20:14;;;;;;;12.70;6.10;;;32.20;97.90;;;;;;5094095;28;20254;-72
2023/06/22 10:22:41;;;;;;;10.90;6.57;;;31.90;97.30;;;;;;5093808;28;20169;-72
2023/06/22 10:25:07;;;;;;;8.70;5.97;;;31.70;98.00;;;;;;5093857;28;20984;-73
2023/06/22 10:27:33;;;;;;;11.30;6.33;;;31.90;97.20;;;;;;5094597;28;20395;-73
2023/06/22 10:29:59;;;;;;;9.77;6.27;;;31.70;96.90;;;;;;5093749;28;20498;-73
2023/06/22 10:32:24;;;;;;;13.40;7.47;;;31.90;97.30;;;;;;5093360;28;20189;-73
2023/06/22 10:34:50;;;;;;;12.37;7.13;;;32.20;97.20;;;;;;5093960;28;20161;-73
2023/06/22 10:37:15;;;;;;;12.00;6.63;;;32.30;96.90;;;;;;5093857;28;20166;-73
2023/06/22 10:39:41;;;;;;;10.23;6.03;;;32.10;96.80;;;;;;5091287;28;20283;-73
2023/06/22 10:42:07;;;;;;;9.33;5.80;;;31.90;97.70;;;;;;5093686;28;20218;-73
2023/06/22 10:44:32;;;;;;;9.70;6.03;;;32.40;98.30;;;;;;5093881;28;20161;-73
2023/06/22 10:46:58;;;;;;;9.17;6.27;;;32.60;96.10;;;;;;5093379;28;20254;-74
2023/06/22 10:49:23;;;;;;;14.43;6.93;;;32.90;96.40;;;;;;5093522;28;20170;-73
2023/06/22 10:51:49;;;;;;;8.77;6.43;;;33.30;95.30;;;;;;5093534;28;20185;-73
2023/06/22 10:54:18;;;;;;;11.70;6.50;;;33.30;94.80;;;;;;5094336;28;20176;-73
2023/06/22 10:56:43;;;;;;;10.60;6.70;;;33.10;94.50;;;;;;5095009;28;20165;-73
2023/06/22 10:59:09;;;;;;;10.27;6.70;;;33.00;95.50;;;;;;5094220;28;20543;-73
2023/06/22 11:01:35;;;;;;;16.43;7.03;;;32.60;96.60;;;;;;5094292;28;20562;-73
2023/06/22 11:04:00;;;;;;;13.90;6.23;;;32.50;96.40;;;;;;5094825;28;20166;-73
2023/06/22 11:06:26;;;;;;;8.93;6.80;;;32.30;97.00;;;;;;5094131;28;20548;-73
2023/06/22 11:08:51;;;;;;;12.47;7.30;;;32.60;96.80;;;;;;5093040;28;20256;-72
2023/06/22 11:11:17;;;;;;;8.60;7.10;;;32.60;95.80;;;;;;5092995;28;20209;-73
2023/06/22 11:13:43;;;;;;;9.50;7.30;;;32.70;95.10;;;;;;5093299;28;20691;-74
2023/06/22 11:16:10;;;;;;;7.20;6.50;;;32.60;95.40;;;;;;5093207;28;20419;-70
2023/06/22 11:18:36;;;;;;;9.73;6.70;;;32.50;95.30;;;;;;5092974;28;20196;-72
2023/06/22 11:21:01;;;;;;;12.73;6.77;;;32.40;95.70;;;;;;5093233;28;20419;-73
2023/06/22 11:23:28;;;;;;;9.30;7.33;;;32.40;95.40;;;;;;5092855;28;20197;-71
2023/06/22 11:25:54;;;;;;;10.87;6.73;;;32.20;95.90;;;;;;5092743;28;20529;-71
2023/06/22 11:28:20;;;;;;;10.40;6.60;;;32.40;95.70;;;;;;5092924;28;20402;-71
2023/06/22 11:30:45;;;;;;;10.80;7.43;;;32.40;96.10;;;;;;5092557;28;20419;-71
2023/06/22 11:33:11;;;;;;;9.93;6.37;;;32.50;96.00;;;;;;5092536;28;20161;-71
2023/06/22 11:35:37;;;;;;;11.53;6.27;;;32.40;95.80;;;;;;5092864;28;20169;-71
2023/06/22 11:38:04;;;;;;;12.60;7.00;;;32.40;96.10;;;;;;5093259;28;20177;-70
2023/06/22 11:40:29;;;;;;;8.67;6.07;;;32.70;96.60;;;;;;5092756;28;20177;-71
2023/06/22 11:42:55;;;;;;;11.67;6.40;;;33.30;96.10;;;;;;5093081;28;20388;-72
2023/06/22 11:45:20;;;;;;;9.90;7.33;;;34.30;95.50;;;;;;5095772;22;20222;-72
2023/06/22 11:47:46;;;;;;;10.83;7.47;;;34.80;93.20;;;;;;5051782;28;20669;-72
2023/06/22 11:50:12;;;;;;;8.43;6.90;;;34.60;93.70;;;;;;5050582;28;20174;-67
2023/06/22 11:52:38;;;;;;;11.07;7.00;;;34.30;93.60;;;;;;5050672;28;20178;-69
2023/06/22 11:55:05;;;;;;;8.50;6.77;;;34.60;93.40;;;;;;5052020;28;20252;-68
2023/06/22 11:57:32;;;;;;;8.23;6.90;;;34.50;92.90;;;;;;5052177;28;20211;-68
2023/06/22 11:59:58;;;;;;;9.77;6.60;;;34.20;93.10;;;;;;5051668;28;20544;-71
2023/06/22 12:02:24;;;;;;;10.27;7.20;;;34.50;92.80;;;;;;5051204;28;20496;-68
2023/06/22 12:04:52;;;;;;;11.30;6.70;;;34.50;92.50;;;;;;5052060;28;20187;-68
2023/06/22 12:07:18;;;;;;;8.47;6.50;;;34.00;93.20;;;;;;5051841;28;20194;-68
2023/06/22 12:09:43;;;;;;;11.07;6.93;;;34.20;91.80;;;;;;5051721;28;20520;-68
2023/06/22 12:12:09;;;;;;;8.10;6.03;;;34.30;92.20;;;;;;5051924;28;20271;-68
2023/06/22 12:14:35;;;;;;;9.20;6.30;;;34.10;92.30;;;;;;5053571;28;20179;-68
2023/06/22 12:17:01;;;;;;;9.63;6.90;;;34.40;92.10;;;;;;5052073;28;20178;-69
2023/06/22 12:19:26;;;;;;;9.83;6.50;;;34.50;93.10;;;;;;5055212;28;20198;-68
2023/06/22 12:21:52;;;;;;;14.30;6.90;;;34.00;92.40;;;;;;5052406;28;20550;-67
2023/06/22 12:24:17;;;;;;;12.63;6.60;;;34.00;92.50;;;;;;5065467;28;20538;-68
2023/06/22 12:26:43;;;;;;;10.63;6.80;;;33.80;92.90;;;;;;5055536;28;20676;-68
2023/06/22 12:29:09;;;;;;;9.90;7.63;;;33.90;93.10;;;;;;5049781;28;20171;-69
2023/06/22 12:31:38;;;;;;;12.60;7.70;;;33.60;93.30;;;;;;5035472;28;20293;-69
2023/06/22 12:34:04;;;;;;;13.30;7.10;;;33.40;93.40;;;;;;5034982;28;20586;-69
2023/06/22 12:36:29;;;;;;;12.07;7.33;;;33.50;93.60;;;;;;5035053;28;20421;-69
2023/06/22 12:38:55;;;;;;;12.37;7.57;;;33.40;93.20;;;;;;5033637;28;20194;-70